createdAt,value
2019-05-23T00:00:42.939Z,99373.78
2019-05-23T00:03:13.221Z,99376.66
2019-05-23T00:05:43.447Z,99379.75
2019-05-23T00:08:13.730Z,99377.17
2019-05-23T00:10:46.602Z,99377.95
2019-05-23T00:13:16.640Z,99374.90
2019-05-23T00:15:47.135Z,99380.17
2019-05-23T00:18:21.088Z,99372.27
2019-05-23T00:20:49.647Z,99377.17
2019-05-23T00:23:19.411Z,99376.52
2019-05-23T00:25:49.481Z,99369.39
2019-05-23T00:28:17.919Z,99375.02
2019-05-23T00:30:50.910Z,99380.35
2019-05-23T00:33:21.625Z,99377.84
2019-05-23T00:35:51.462Z,99378.86
2019-05-23T00:38:21.274Z,99371.31
2019-05-23T00:40:50.662Z,99378.02
2019-05-23T00:43:19.916Z,99376.34
2019-05-23T00:45:48.901Z,99374.45
2019-05-23T00:48:18.278Z,99372.69
2019-05-23T00:50:48.812Z,99374.13
2019-05-23T00:53:17.288Z,99372.50
2019-05-23T00:55:47.339Z,99371.28
2019-05-23T00:58:16.791Z,99378.52
2019-05-23T01:00:45.620Z,99371.20
2019-05-23T01:03:16.466Z,99377.84
2019-05-23T01:05:44.882Z,99376.58
2019-05-23T01:08:13.977Z,99376.55
2019-05-23T01:10:44.019Z,99374.99
2019-05-23T01:13:15.137Z,99372.70
2019-05-23T01:15:44.287Z,99371.85
2019-05-23T01:18:13.414Z,99374.93
2019-05-23T01:21:01.686Z,99368.35
2019-05-23T01:23:38.070Z,99369.41
2019-05-23T01:26:06.571Z,99369.13
2019-05-23T01:28:35.110Z,99362.41
2019-05-23T01:31:05.240Z,99363.48
2019-05-23T01:33:34.608Z,99363.53
2019-05-23T01:36:04.064Z,99364.80
2019-05-23T01:38:33.035Z,99361.61
2019-05-23T01:41:01.795Z,99368.41
2019-05-23T01:43:32.148Z,99354.31
2019-05-23T01:46:00.855Z,99366.16
2019-05-23T01:48:30.008Z,99365.69
2019-05-23T01:50:59.010Z,99366.75
2019-05-23T01:53:27.650Z,99371.17
2019-05-23T01:55:56.136Z,99367.31
2019-05-23T01:58:24.683Z,99363.78
2019-05-23T02:00:53.438Z,99375.41
2019-05-23T02:03:22.459Z,99371.45
2019-05-23T02:05:50.943Z,99370.97
2019-05-23T02:08:19.358Z,99374.08
2019-05-23T02:10:48.809Z,99371.58
2019-05-23T02:13:17.603Z,99375.07
2019-05-23T02:15:46.776Z,99370.63
2019-05-23T02:18:15.649Z,99368.39
2019-05-23T02:20:45.808Z,99369.86
2019-05-23T02:23:14.448Z,99367.29
2019-05-23T02:25:42.968Z,99365.99
2019-05-23T02:28:12.385Z,99365.57
2019-05-23T02:30:41.058Z,99362.55
2019-05-23T02:33:10.204Z,99364.36
2019-05-23T02:35:40.578Z,99364.02
2019-05-23T02:38:13.489Z,99358.47
2019-05-23T02:40:46.806Z,99365.48
2019-05-23T02:43:17.996Z,99362.80
2019-05-23T02:45:53.088Z,99358.47
2019-05-23T02:48:24.198Z,99363.78
2019-05-23T02:50:59.875Z,99365.09
2019-05-23T02:53:31.340Z,99360.87
2019-05-23T02:56:03.761Z,99362.56
2019-05-23T02:58:36.584Z,99365.27
2019-05-23T03:01:11.101Z,99366.98
2019-05-23T03:03:39.495Z,99362.70
2019-05-23T03:06:12.888Z,99358.42
2019-05-23T03:08:41.934Z,99344.86
2019-05-23T03:11:19.452Z,99347.81
2019-05-23T03:13:48.104Z,99355.63
2019-05-23T03:16:19.352Z,99358.77
2019-05-23T03:18:51.226Z,99357.45
2019-05-23T03:21:19.646Z,99351.67
2019-05-23T03:23:49.312Z,99352.72
2019-05-23T03:26:39.858Z,99349.55
2019-05-23T03:29:08.765Z,99347.38
2019-05-23T03:31:40.411Z,99348.72
2019-05-23T03:34:10.455Z,99347.38
2019-05-23T03:36:39.144Z,99346.96
2019-05-23T03:39:10.536Z,99341.60
2019-05-23T03:41:39.453Z,99347.38
2019-05-23T03:44:08.911Z,99339.03
2019-05-23T03:46:39.070Z,99345.55
2019-05-23T03:49:08.923Z,99337.19
2019-05-23T03:51:37.342Z,99337.11
2019-05-23T03:54:05.839Z,99343.66
2019-05-23T03:56:35.140Z,99345.42
2019-05-23T03:59:04.712Z,99340.58
2019-05-23T04:01:47.167Z,99339.19
2019-05-23T04:04:06.345Z,99337.90
2019-05-23T04:06:34.796Z,99337.03
2019-05-23T04:09:06.193Z,99331.14
2019-05-23T04:11:34.673Z,99323.20
2019-05-23T04:14:03.517Z,99322.64
2019-05-23T04:16:32.349Z,99326.45
2019-05-23T04:19:02.859Z,99319.38
2019-05-23T04:21:31.458Z,99328.86
2019-05-23T04:23:59.940Z,99328.39
2019-05-23T04:26:28.516Z,99327.33
2019-05-23T04:28:58.082Z,99332.56
2019-05-23T04:31:26.483Z,99331.67
2019-05-23T04:33:54.898Z,99338.05
2019-05-23T04:36:23.304Z,99332.17
2019-05-23T04:38:51.909Z,99339.50
2019-05-23T04:41:20.353Z,99335.53
2019-05-23T04:43:48.913Z,99345.05
2019-05-23T04:46:17.461Z,99345.55
2019-05-23T04:48:45.876Z,99344.56
2019-05-23T04:51:15.013Z,99336.55
2019-05-23T04:53:43.502Z,99347.84
2019-05-23T04:56:12.471Z,99342.24
2019-05-23T04:58:41.159Z,99346.56
2019-05-23T05:01:10.685Z,99349.10
2019-05-23T05:03:39.816Z,99353.41
2019-05-23T05:06:08.288Z,99348.08
2019-05-23T05:08:36.750Z,99363.55
2019-05-23T05:11:05.418Z,99357.65
2019-05-23T05:13:34.421Z,99362.70
2019-05-23T05:16:02.818Z,99357.30
2019-05-23T05:18:31.302Z,99366.02
2019-05-23T05:20:59.706Z,99359.59
2019-05-23T05:23:28.115Z,99365.95
2019-05-23T05:25:56.513Z,99365.70
2019-05-23T05:28:24.928Z,99368.58
2019-05-23T05:30:53.493Z,99366.94
2019-05-23T05:33:22.074Z,99372.45
2019-05-23T05:35:50.545Z,99369.93
2019-05-23T05:38:19.531Z,99364.83
2019-05-23T05:40:47.998Z,99365.83
2019-05-23T05:43:17.091Z,99371.20
2019-05-23T05:45:45.486Z,99369.14
2019-05-23T05:48:13.939Z,99373.58
2019-05-23T05:50:42.883Z,99377.13
2019-05-23T05:53:11.469Z,99382.34
2019-05-23T05:55:39.866Z,99372.97
2019-05-23T05:58:08.297Z,99381.34
2019-05-23T06:00:46.946Z,99379.55
2019-05-23T06:03:15.641Z,99383.06
2019-05-23T06:06:00.558Z,99385.06
2019-05-23T06:08:30.898Z,99386.72
2019-05-23T06:10:59.349Z,99387.31
2019-05-23T06:13:28.125Z,99393.59
2019-05-23T06:15:56.697Z,99393.73
2019-05-23T06:18:25.215Z,99395.62
2019-05-23T06:20:54.192Z,99400.16
2019-05-23T06:23:23.021Z,99393.20
2019-05-23T06:25:51.504Z,99395.48
2019-05-23T06:28:20.201Z,99404.28
2019-05-23T06:30:50.709Z,99399.08
2019-05-23T06:33:23.738Z,99401.67
2019-05-23T06:35:50.044Z,99401.97
2019-05-23T06:38:18.720Z,99406.05
2019-05-23T06:40:47.860Z,99410.69
2019-05-23T06:43:16.405Z,99410.83
2019-05-23T06:45:45.761Z,99408.27
2019-05-23T06:48:15.417Z,99411.86
2019-05-23T06:50:44.105Z,99411.52
2019-05-23T06:53:12.608Z,99409.25
2019-05-23T06:55:41.019Z,99409.98
2019-05-23T06:58:09.413Z,99407.04
2019-05-23T07:00:38.237Z,99411.34
2019-05-23T07:03:07.279Z,99411.34
2019-05-23T07:05:36.813Z,99412.37
2019-05-23T07:08:06.758Z,99405.16
2019-05-23T07:10:35.421Z,99408.29
2019-05-23T07:13:04.544Z,99409.55
2019-05-23T07:15:33.201Z,99406.49
2019-05-23T07:18:02.163Z,99408.52
2019-05-23T07:20:31.032Z,99412.45
2019-05-23T07:22:59.676Z,99418.33
2019-05-23T07:25:28.262Z,99420.26
2019-05-23T07:27:56.740Z,99423.08
2019-05-23T07:30:27.390Z,99414.57
2019-05-23T07:32:55.959Z,99419.28
2019-05-23T07:35:24.540Z,99421.00
2019-05-23T07:37:52.923Z,99420.66
2019-05-23T07:40:23.621Z,99424.64
2019-05-23T07:42:52.112Z,99423.93
2019-05-23T07:45:27.871Z,99424.33
2019-05-23T07:47:56.287Z,99422.53
2019-05-23T07:50:24.692Z,99425.78
2019-05-23T07:52:54.986Z,99421.66
2019-05-23T07:55:27.887Z,99425.59
2019-05-23T07:57:56.388Z,99417.64
2019-05-23T08:00:35.269Z,99424.23
2019-05-23T08:03:05.284Z,99429.91
2019-05-23T08:05:34.430Z,99429.63
2019-05-23T08:08:03.463Z,99426.69
2019-05-23T08:10:34.011Z,99429.64
2019-05-23T08:13:02.479Z,99419.17
2019-05-23T08:15:31.231Z,99425.52
2019-05-23T08:17:59.925Z,99417.89
2019-05-23T08:20:28.398Z,99413.09
2019-05-23T08:22:56.974Z,99428.41
2019-05-23T08:25:25.395Z,99419.27
2019-05-23T08:27:53.797Z,99422.73
2019-05-23T08:30:22.447Z,99418.33
2019-05-23T08:32:51.192Z,99420.93
2019-05-23T08:35:20.017Z,99417.59
2019-05-23T08:37:48.606Z,99414.25
2019-05-23T08:40:18.851Z,99421.32
2019-05-23T08:42:47.258Z,99427.73
2019-05-23T08:45:17.687Z,99421.56
2019-05-23T08:47:46.112Z,99423.43
2019-05-23T08:50:16.950Z,99420.77
2019-05-23T08:52:45.585Z,99416.37
2019-05-23T08:55:17.271Z,99417.91
2019-05-23T08:57:45.731Z,99418.87
2019-05-23T09:00:15.097Z,99411.13
2019-05-23T09:02:43.841Z,99414.94
2019-05-23T09:05:12.523Z,99404.62
2019-05-23T09:07:41.313Z,99409.36
2019-05-23T09:10:09.969Z,99416.41
2019-05-23T09:12:38.560Z,99411.09
2019-05-23T09:15:09.849Z,99408.33
2019-05-23T09:17:52.507Z,99403.52
2019-05-23T09:20:09.275Z,99402.66
2019-05-23T09:22:38.913Z,99401.50
2019-05-23T09:25:08.460Z,99401.80
2019-05-23T09:27:37.423Z,99398.80
2019-05-23T09:30:08.331Z,99398.91
2019-05-23T09:32:36.812Z,99397.03
2019-05-23T09:35:20.210Z,99393.68
2019-05-23T09:37:37.937Z,99398.14
2019-05-23T09:40:07.620Z,99399.02
2019-05-23T09:42:36.114Z,99401.23
2019-05-23T09:45:06.172Z,99394.73
2019-05-23T09:47:34.666Z,99395.59
2019-05-23T09:50:05.586Z,99392.84
2019-05-23T09:52:34.269Z,99395.98
2019-05-23T09:55:02.689Z,99392.20
2019-05-23T09:57:31.228Z,99384.29
2019-05-23T09:59:59.599Z,99393.52
2019-05-23T10:02:28.092Z,99394.20
2019-05-23T10:04:57.145Z,99388.23
2019-05-23T10:07:26.437Z,99385.05
2019-05-23T10:09:55.013Z,99383.83
2019-05-23T10:12:23.598Z,99385.25
2019-05-23T10:14:52.071Z,99378.88
2019-05-23T10:17:20.496Z,99379.86
2019-05-23T10:19:48.902Z,99384.42
2019-05-23T10:22:17.599Z,99379.48
2019-05-23T10:24:46.035Z,99377.64
2019-05-23T10:27:16.099Z,99375.66
2019-05-23T10:29:44.509Z,99379.10
2019-05-23T10:32:13.702Z,99374.63
2019-05-23T10:34:42.223Z,99372.08
2019-05-23T10:37:12.237Z,99378.23
2019-05-23T10:39:43.712Z,99367.86
2019-05-23T10:42:12.503Z,99356.40
2019-05-23T10:44:44.788Z,99366.29
2019-05-23T10:47:11.125Z,99366.47
2019-05-23T10:49:39.532Z,99358.58
2019-05-23T10:52:07.950Z,99358.66
2019-05-23T10:54:36.365Z,99357.56
2019-05-23T10:57:05.017Z,99347.96
2019-05-23T10:59:33.550Z,99348.41
2019-05-23T11:02:02.002Z,99348.56
2019-05-23T11:04:30.420Z,99348.41
2019-05-23T11:06:58.994Z,99346.34
2019-05-23T11:09:37.303Z,99340.95
2019-05-23T11:11:57.881Z,99348.55
2019-05-23T11:14:26.540Z,99343.67
2019-05-23T11:16:55.398Z,99344.27
2019-05-23T11:19:23.874Z,99347.70
2019-05-23T11:21:52.296Z,99338.03
2019-05-23T11:24:20.913Z,99341.20
2019-05-23T11:26:49.563Z,99332.80
2019-05-23T11:29:18.143Z,99341.33
2019-05-23T11:31:46.678Z,99332.55
2019-05-23T11:34:15.101Z,99326.05
2019-05-23T11:36:43.569Z,99317.47
2019-05-23T11:39:13.263Z,99315.72
2019-05-23T11:41:41.664Z,99320.98
2019-05-23T11:44:10.184Z,99305.84
2019-05-23T11:46:39.557Z,99303.91
2019-05-23T11:49:08.425Z,99302.66
2019-05-23T11:51:37.580Z,99302.54
2019-05-23T11:54:09.195Z,99307.25
2019-05-23T11:56:36.964Z,99305.07
2019-05-23T11:59:05.664Z,99296.68
2019-05-23T12:01:41.810Z,99299.97
2019-05-23T12:04:14.692Z,99298.72
2019-05-23T12:06:55.181Z,99290.14
2019-05-23T12:09:15.224Z,99297.81
2019-05-23T12:11:44.038Z,99295.52
2019-05-23T12:14:12.443Z,99291.13
2019-05-23T12:16:41.700Z,99289.80
2019-05-23T12:19:10.505Z,99290.20
2019-05-23T12:21:38.906Z,99281.80
2019-05-23T12:24:07.597Z,99272.06
2019-05-23T12:26:36.893Z,99281.19
2019-05-23T12:29:05.435Z,99279.24
2019-05-23T12:31:33.845Z,99271.39
2019-05-23T12:34:02.270Z,99272.56
2019-05-23T12:36:31.350Z,99267.86
2019-05-23T12:38:59.780Z,99267.62
2019-05-23T12:41:28.183Z,99265.28
2019-05-23T12:43:56.618Z,99267.62
2019-05-23T12:46:25.031Z,99253.53
2019-05-23T12:49:01.011Z,99253.53
2019-05-23T12:51:39.715Z,99261.22
2019-05-23T12:54:08.410Z,99253.36
2019-05-23T12:56:37.030Z,99253.36
2019-05-23T12:59:06.096Z,99251.98
2019-05-23T13:01:36.281Z,99258.38
2019-05-23T13:04:09.920Z,99253.53
2019-05-23T13:06:35.443Z,99246.95
2019-05-23T13:09:05.393Z,99235.77
2019-05-23T13:11:33.878Z,99243.72
2019-05-23T13:14:02.400Z,99235.20
2019-05-23T13:16:31.168Z,99227.41
2019-05-23T13:18:59.663Z,99243.61
2019-05-23T13:21:28.498Z,99239.49
2019-05-23T13:23:56.919Z,99234.47
2019-05-23T13:26:25.701Z,99242.92
2019-05-23T13:28:54.147Z,99225.66
2019-05-23T13:31:22.550Z,99233.27
2019-05-23T13:33:50.964Z,99229.59
2019-05-23T13:36:19.385Z,99224.00
2019-05-23T13:38:48.070Z,99228.56
2019-05-23T13:41:16.706Z,99228.56
2019-05-23T13:43:45.357Z,99229.63
2019-05-23T13:46:13.996Z,99224.33
2019-05-23T13:48:42.551Z,99224.33
2019-05-23T13:51:10.944Z,99220.94
2019-05-23T13:53:39.431Z,99214.23
2019-05-23T13:56:08.276Z,99214.23
2019-05-23T13:58:36.961Z,99219.36
2019-05-23T14:01:09.234Z,99218.91
2019-05-23T14:03:36.054Z,99215.50
2019-05-23T14:06:04.993Z,99219.77
2019-05-23T14:08:33.391Z,99227.13
2019-05-23T14:11:01.816Z,99223.16
2019-05-23T14:17:23.676Z,99207.47
2019-05-23T14:19:52.152Z,99216.76
2019-05-23T14:22:21.969Z,99210.66
2019-05-23T14:24:50.391Z,99212.31
2019-05-23T14:27:20.931Z,99212.31
2019-05-23T14:29:49.465Z,99202.58
2019-05-23T14:32:22.135Z,99196.64
2019-05-23T14:34:52.228Z,99200.55
2019-05-23T14:37:22.496Z,99181.12
2019-05-23T14:39:52.116Z,99181.12
2019-05-23T14:42:22.164Z,99191.14
2019-05-23T14:44:52.171Z,99194.13
2019-05-23T14:47:25.135Z,99196.97
2019-05-23T14:49:55.288Z,99187.10
2019-05-23T14:52:25.315Z,99188.84
2019-05-23T14:54:56.177Z,99182.23
2019-05-23T14:57:24.621Z,99182.23
2019-05-23T14:59:53.107Z,99187.91
2019-05-23T15:02:21.733Z,99182.86
2019-05-23T15:04:50.144Z,99184.63
2019-05-23T15:07:18.550Z,99173.92
2019-05-23T15:09:46.976Z,99178.83
2019-05-23T15:12:15.567Z,99169.91
2019-05-23T15:14:44.092Z,99165.21
2019-05-23T15:17:12.609Z,99168.73
2019-05-23T15:19:45.146Z,99176.81
2019-05-23T15:22:11.235Z,99170.72
2019-05-23T15:24:39.866Z,99165.26
2019-05-23T15:27:08.645Z,99166.47
2019-05-23T15:29:37.046Z,99174.63
2019-05-23T15:32:05.535Z,99169.96
2019-05-23T15:34:35.221Z,99161.82
2019-05-23T15:37:04.007Z,99164.64
2019-05-23T15:39:32.511Z,99163.25
2019-05-23T15:42:00.963Z,99168.84
2019-05-23T15:44:30.369Z,99161.67
2019-05-23T15:46:59.133Z,99158.67
2019-05-23T15:49:28.277Z,99171.67
2019-05-23T15:51:58.512Z,99168.53
2019-05-23T15:54:37.353Z,99168.02
2019-05-23T15:57:13.186Z,99148.41
2019-05-23T15:59:43.231Z,99148.41
2019-05-23T16:02:21.963Z,99161.34
2019-05-23T16:04:51.352Z,99155.34
2019-05-23T16:07:20.444Z,99153.90
2019-05-23T16:09:49.024Z,99153.90
2019-05-23T16:12:17.815Z,99155.24
2019-05-23T16:18:08.654Z,99149.02
2019-05-23T16:20:37.339Z,99140.52
2019-05-23T16:23:05.752Z,99131.59
2019-05-23T16:25:34.236Z,99130.26
2019-05-23T16:28:02.674Z,99133.69
2019-05-23T16:30:31.180Z,99136.31
2019-05-23T16:32:59.604Z,99142.32
2019-05-23T16:35:28.168Z,99143.34
2019-05-23T16:37:56.749Z,99137.04
2019-05-23T16:40:25.557Z,99133.27
2019-05-23T16:42:54.054Z,99141.97
2019-05-23T16:45:22.482Z,99133.88
2019-05-23T16:47:51.082Z,99138.73
2019-05-23T16:50:19.479Z,99130.49
2019-05-23T16:52:47.969Z,99131.01
2019-05-23T16:55:18.108Z,99131.17
2019-05-23T16:57:53.933Z,99123.86
2019-05-23T17:00:39.304Z,99131.74
2019-05-23T17:03:12.365Z,99123.33
2019-05-23T17:05:54.878Z,99137.90
2019-05-23T17:08:36.804Z,99123.39
2019-05-23T17:11:23.223Z,99122.81
2019-05-23T17:13:56.277Z,99117.27
2019-05-23T17:16:26.336Z,99116.28
2019-05-23T17:18:59.331Z,99114.98
2019-05-23T17:21:44.297Z,99114.98
2019-05-23T17:24:17.234Z,99115.62
2019-05-23T17:26:59.319Z,99111.64
2019-05-23T17:29:35.207Z,99115.35
2019-05-23T17:32:05.338Z,99115.35
2019-05-23T17:34:33.738Z,99109.25
2019-05-23T17:37:02.623Z,99107.47
2019-05-23T17:39:31.311Z,99097.50
2019-05-23T17:42:01.411Z,99107.75
2019-05-23T17:44:29.789Z,99107.51
2019-05-23T17:46:58.208Z,99099.83
2019-05-23T17:49:26.612Z,99105.33
2019-05-23T17:51:55.396Z,99104.06
2019-05-23T17:54:24.103Z,99104.83
2019-05-23T17:56:52.579Z,99104.50
2019-05-23T17:59:20.972Z,99094.67
2019-05-23T18:01:49.722Z,99097.62
2019-05-23T18:04:18.396Z,99101.62
2019-05-23T18:06:46.814Z,99099.95
2019-05-23T18:09:16.265Z,99099.95
2019-05-23T18:11:46.324Z,99106.78
2019-05-23T18:14:15.462Z,99106.78
2019-05-23T18:16:44.507Z,99108.63
2019-05-23T18:19:14.608Z,99113.48
2019-05-23T18:21:43.296Z,99113.48
2019-05-23T18:24:13.726Z,99116.31
2019-05-23T18:26:42.127Z,99111.89
2019-05-23T18:29:10.545Z,99109.91
2019-05-23T18:31:41.110Z,99106.81
2019-05-23T18:34:11.278Z,99110.11
2019-05-23T18:36:40.491Z,99106.05
2019-05-23T18:39:10.142Z,99104.81
2019-05-23T18:41:38.907Z,99101.53
2019-05-23T18:44:07.403Z,99106.03
2019-05-23T18:46:40.051Z,99110.97
2019-05-23T18:49:09.941Z,99105.42
2019-05-23T18:51:39.225Z,99114.13
2019-05-23T18:54:07.826Z,99110.36
2019-05-23T18:56:36.176Z,99109.13
2019-05-23T18:59:05.891Z,99110.66
2019-05-23T19:01:34.402Z,99115.71
2019-05-23T19:04:02.799Z,99114.95
2019-05-23T19:06:31.221Z,99115.63
2019-05-23T19:09:00.267Z,99119.77
2019-05-23T19:11:29.307Z,99116.04
2019-05-23T19:13:57.738Z,99115.48
2019-05-23T19:16:26.467Z,99124.91
2019-05-23T19:18:54.879Z,99126.92
2019-05-23T19:21:23.359Z,99124.27
2019-05-23T19:23:51.779Z,99129.03
2019-05-23T19:26:20.254Z,99130.73
2019-05-23T19:28:48.678Z,99128.78
2019-05-23T19:31:17.519Z,99126.09
2019-05-23T19:33:46.949Z,99122.84
2019-05-23T19:36:16.564Z,99129.50
2019-05-23T19:38:45.094Z,99121.19
2019-05-23T19:41:13.642Z,99122.23
2019-05-23T19:43:42.460Z,99115.91
2019-05-23T19:46:11.880Z,99116.55
2019-05-23T19:48:41.132Z,99118.20
2019-05-23T19:51:10.177Z,99119.73
2019-05-23T19:53:38.853Z,99113.58
2019-05-23T19:56:09.004Z,99114.31
2019-05-23T19:58:37.522Z,99115.03
2019-05-23T20:01:06.609Z,99109.85
2019-05-23T20:03:35.535Z,99112.08
2019-05-23T20:06:05.360Z,99110.51
2019-05-23T20:08:33.775Z,99103.72
2019-05-23T20:11:02.439Z,99108.30
2019-05-23T20:13:31.046Z,99108.87
2019-05-23T20:15:59.619Z,99098.77
2019-05-23T20:18:28.309Z,99101.98
2019-05-23T20:20:57.144Z,99106.00
2019-05-23T20:23:25.705Z,99104.75
2019-05-23T20:25:54.141Z,99099.89
2019-05-23T20:28:23.229Z,99099.72
2019-05-23T20:30:52.639Z,99095.72
2019-05-23T20:33:21.238Z,99096.48
2019-05-23T20:35:49.907Z,99090.91
2019-05-23T20:38:18.965Z,99098.02
2019-05-23T20:40:47.368Z,99099.92
2019-05-23T20:43:16.278Z,99094.77
2019-05-23T20:45:44.791Z,99096.45
2019-05-23T20:48:13.199Z,99100.33
2019-05-23T20:50:41.615Z,99101.68
2019-05-23T20:53:10.091Z,99100.30
2019-05-23T20:55:38.578Z,99100.70
2019-05-23T20:58:07.121Z,99095.67
2019-05-23T21:00:48.874Z,99096.95
2019-05-23T21:03:17.561Z,99099.91
2019-05-23T21:05:46.142Z,99097.35
2019-05-23T21:08:14.734Z,99092.86
2019-05-23T21:10:46.259Z,99093.19
2019-05-23T21:13:14.694Z,99097.35
2019-05-23T21:15:43.460Z,99101.47
2019-05-23T21:18:12.771Z,99093.37
2019-05-23T21:20:41.263Z,99087.91
2019-05-23T21:23:10.023Z,99085.95
2019-05-23T21:25:40.146Z,99093.06
2019-05-23T21:28:08.557Z,99097.15
2019-05-23T21:30:36.971Z,99095.16
2019-05-23T21:33:05.962Z,99096.02
2019-05-23T21:35:34.586Z,99092.04
2019-05-23T21:38:03.085Z,99092.11
2019-05-23T21:40:37.604Z,99095.80
2019-05-23T21:43:06.456Z,99093.91
2019-05-23T21:45:34.854Z,99090.16
2019-05-23T21:48:03.753Z,99102.41
2019-05-23T21:50:32.289Z,99094.84
2019-05-23T21:53:00.697Z,99090.62
2019-05-23T21:55:40.854Z,99091.48
2019-05-23T21:58:11.813Z,99095.23
2019-05-23T22:01:02.368Z,99087.97
2019-05-23T22:03:32.483Z,99085.78
2019-05-23T22:06:01.341Z,99086.57
2019-05-23T22:08:29.813Z,99084.62
2019-05-23T22:10:58.225Z,99084.45
2019-05-23T22:13:26.808Z,99080.70
2019-05-23T22:15:56.883Z,99077.91
2019-05-23T22:18:25.697Z,99081.73
2019-05-23T22:20:54.112Z,99075.85
2019-05-23T22:23:22.584Z,99072.97
2019-05-23T22:25:51.029Z,99075.38
2019-05-23T22:28:19.791Z,99065.73
2019-05-23T22:30:48.276Z,99067.05
2019-05-23T22:33:18.594Z,99066.25
2019-05-23T22:35:47.017Z,99064.52
2019-05-23T22:38:15.587Z,99065.08
2019-05-23T22:40:44.089Z,99068.00
2019-05-23T22:43:20.673Z,99069.00
2019-05-23T22:45:42.707Z,99058.70
2019-05-23T22:48:11.111Z,99058.23
2019-05-23T22:50:39.547Z,99057.20
2019-05-23T22:53:07.950Z,99051.50
2019-05-23T22:55:36.377Z,99049.84
2019-05-23T22:58:06.027Z,99050.05
2019-05-23T23:00:36.153Z,99050.61
2019-05-23T23:03:04.629Z,99049.19
2019-05-23T23:05:33.118Z,99045.77
2019-05-23T23:08:01.901Z,99040.01
2019-05-23T23:10:30.331Z,99025.67
2019-05-23T23:12:58.735Z,99034.27
2019-05-23T23:15:28.936Z,99032.78
2019-05-23T23:17:57.328Z,99041.20
2019-05-23T23:20:25.744Z,99030.12
2019-05-23T23:22:54.160Z,99030.53
2019-05-23T23:25:22.575Z,99031.08
2019-05-23T23:27:50.983Z,99022.88
2019-05-23T23:30:22.093Z,99022.80
2019-05-23T23:32:50.485Z,99019.80
2019-05-23T23:35:18.887Z,99020.03
2019-05-23T23:37:47.306Z,99016.03
2019-05-23T23:40:15.808Z,99025.68
2019-05-23T23:42:44.315Z,99028.27
2019-05-23T23:45:30.667Z,99016.50
2019-05-23T23:48:16.638Z,99020.72
2019-05-23T23:51:02.872Z,99016.50
2019-05-23T23:53:49.185Z,99012.52
2019-05-23T23:56:35.246Z,99011.78
2019-05-23T23:59:02.905Z,99010.92
